Terminal Aerodrome Forecast
Issued by NWS

Home | Current Version | Previous Version | Text Only | Print | Product List | Glossary On
Versions: 1 2 3 4 5 6 7 8 9 10 11 12 13 14 15 16 17 18 19 20 21
000
FTAK31 PANC 201740
TAFACD
TAF
PACD 201740Z 2018/2118 31012G22KT 6SM -SN SCT020 BKN030
     FM202300 29012KT P6SM VCSH SCT030 BKN050
     FM210600 12006KT P6SM FEW050 BKN080
     FM211500 12012G22KT 6SM -RASN SCT030 BKN050=

USA.gov is the U.S. government's official web portal to all federal, state and local government web resources and services.